sensor_id;sensor_type;location;lat;lon;timestamp;temperature;humidity
59208;DHT22;44977;53.132;6.408;2023-11-18T00:03:47;2.80;99.90
59208;DHT22;44977;53.132;6.408;2023-11-18T00:08:47;2.70;99.90
59208;DHT22;44977;53.132;6.408;2023-11-18T00:13:48;2.70;99.90
59208;DHT22;44977;53.132;6.408;2023-11-18T00:18:49;2.70;99.90
59208;DHT22;44977;53.132;6.408;2023-11-18T00:23:49;2.70;99.90
59208;DHT22;44977;53.132;6.408;2023-11-18T00:28:50;2.70;99.90
59208;DHT22;44977;53.132;6.408;2023-11-18T00:33:51;2.70;99.90
59208;DHT22;44977;53.132;6.408;2023-11-18T00:38:52;2.70;99.90
59208;DHT22;44977;53.132;6.408;2023-11-18T00:43:53;2.70;99.90
59208;DHT22;44977;53.132;6.408;2023-11-18T00:48:54;2.70;99.90
59208;DHT22;44977;53.132;6.408;2023-11-18T00:53:55;2.70;99.90
59208;DHT22;44977;53.132;6.408;2023-11-18T00:58:55;2.70;99.90
59208;DHT22;44977;53.132;6.408;2023-11-18T01:03:56;2.70;99.90
59208;DHT22;44977;53.132;6.408;2023-11-18T01:09:00;2.70;99.90
59208;DHT22;44977;53.132;6.408;2023-11-18T01:14:02;2.70;99.90
59208;DHT22;44977;53.132;6.408;2023-11-18T01:19:02;2.70;99.90
59208;DHT22;44977;53.132;6.408;2023-11-18T01:24:04;2.80;99.90
59208;DHT22;44977;53.132;6.408;2023-11-18T01:29:04;2.80;99.90
59208;DHT22;44977;53.132;6.408;2023-11-18T01:34:05;2.80;99.90
59208;DHT22;44977;53.132;6.408;2023-11-18T01:39:06;2.80;99.90
59208;DHT22;44977;53.132;6.408;2023-11-18T01:44:07;2.70;99.90
59208;DHT22;44977;53.132;6.408;2023-11-18T01:49:08;2.70;99.90
59208;DHT22;44977;53.132;6.408;2023-11-18T01:54:09;2.70;99.90
59208;DHT22;44977;53.132;6.408;2023-11-18T01:59:16;2.70;99.90
59208;DHT22;44977;53.132;6.408;2023-11-18T02:04:20;2.70;99.90
59208;DHT22;44977;53.132;6.408;2023-11-18T02:09:22;2.70;99.90
59208;DHT22;44977;53.132;6.408;2023-11-18T02:14:30;2.70;99.90
59208;DHT22;44977;53.132;6.408;2023-11-18T02:19:33;2.80;99.90
59208;DHT22;44977;53.132;6.408;2023-11-18T02:24:35;2.80;99.90
59208;DHT22;44977;53.132;6.408;2023-11-18T02:29:40;2.80;99.90
59208;DHT22;44977;53.132;6.408;2023-11-18T02:35:10;2.90;99.90
59208;DHT22;44977;53.132;6.408;2023-11-18T02:40:13;2.90;99.90
59208;DHT22;44977;53.132;6.408;2023-11-18T02:45:17;2.90;99.90
59208;DHT22;44977;53.132;6.408;2023-11-18T02:50:18;2.90;99.90
59208;DHT22;44977;53.132;6.408;2023-11-18T02:55:19;2.90;99.90
59208;DHT22;44977;53.132;6.408;2023-11-18T03:00:24;2.90;99.90
59208;DHT22;44977;53.132;6.408;2023-11-18T03:05:25;3.00;99.90
59208;DHT22;44977;53.132;6.408;2023-11-18T03:10:26;3.00;99.90
59208;DHT22;44977;53.132;6.408;2023-11-18T03:15:28;3.00;99.90
59208;DHT22;44977;53.132;6.408;2023-11-18T03:20:29;3.00;99.90
59208;DHT22;44977;53.132;6.408;2023-11-18T03:25:30;3.00;99.90
59208;DHT22;44977;53.132;6.408;2023-11-18T03:30:30;3.00;99.90
59208;DHT22;44977;53.132;6.408;2023-11-18T03:35:31;3.00;99.90
59208;DHT22;44977;53.132;6.408;2023-11-18T03:40:32;3.10;99.90
59208;DHT22;44977;53.132;6.408;2023-11-18T03:45:35;3.10;99.90
59208;DHT22;44977;53.132;6.408;2023-11-18T03:50:36;3.00;99.90
59208;DHT22;44977;53.132;6.408;2023-11-18T03:55:37;3.00;99.90
59208;DHT22;44977;53.132;6.408;2023-11-18T04:00:37;3.00;99.90
59208;DHT22;44977;53.132;6.408;2023-11-18T04:05:38;3.00;99.90
59208;DHT22;44977;53.132;6.408;2023-11-18T04:10:39;3.00;99.90
59208;DHT22;44977;53.132;6.408;2023-11-18T04:15:40;3.10;99.90
59208;DHT22;44977;53.132;6.408;2023-11-18T04:20:41;3.00;99.90
59208;DHT22;44977;53.132;6.408;2023-11-18T04:25:41;3.10;99.90
59208;DHT22;44977;53.132;6.408;2023-11-18T04:30:42;3.10;99.90
59208;DHT22;44977;53.132;6.408;2023-11-18T04:35:46;3.10;99.90
59208;DHT22;44977;53.132;6.408;2023-11-18T04:40:47;3.10;99.90
59208;DHT22;44977;53.132;6.408;2023-11-18T04:45:47;3.10;99.90
59208;DHT22;44977;53.132;6.408;2023-11-18T04:50:48;3.20;99.90
59208;DHT22;44977;53.132;6.408;2023-11-18T04:55:49;3.20;99.90
59208;DHT22;44977;53.132;6.408;2023-11-18T05:00:49;3.30;99.90
59208;DHT22;44977;53.132;6.408;2023-11-18T05:05:51;3.30;99.90
59208;DHT22;44977;53.132;6.408;2023-11-18T05:10:51;3.40;99.90
59208;DHT22;44977;53.132;6.408;2023-11-18T05:15:52;3.40;99.90
59208;DHT22;44977;53.132;6.408;2023-11-18T05:20:54;3.40;99.90
59208;DHT22;44977;53.132;6.408;2023-11-18T05:25:55;3.40;99.90
59208;DHT22;44977;53.132;6.408;2023-11-18T05:30:58;3.50;99.90
59208;DHT22;44977;53.132;6.408;2023-11-18T05:36:02;3.50;99.90
59208;DHT22;44977;53.132;6.408;2023-11-18T05:41:05;3.60;99.90
59208;DHT22;44977;53.132;6.408;2023-11-18T05:46:16;3.60;99.90
59208;DHT22;44977;53.132;6.408;2023-11-18T05:51:26;3.60;99.90
59208;DHT22;44977;53.132;6.408;2023-11-18T05:56:27;3.60;99.90
59208;DHT22;44977;53.132;6.408;2023-11-18T06:01:27;3.70;99.90
59208;DHT22;44977;53.132;6.408;2023-11-18T06:06:28;3.70;99.90
59208;DHT22;44977;53.132;6.408;2023-11-18T06:11:29;3.70;99.90
59208;DHT22;44977;53.132;6.408;2023-11-18T06:16:32;3.80;99.90
59208;DHT22;44977;53.132;6.408;2023-11-18T06:21:32;3.80;99.90
59208;DHT22;44977;53.132;6.408;2023-11-18T06:26:33;3.80;99.90
59208;DHT22;44977;53.132;6.408;2023-11-18T06:31:36;3.90;99.90
59208;DHT22;44977;53.132;6.408;2023-11-18T06:36:37;3.90;99.90
59208;DHT22;44977;53.132;6.408;2023-11-18T06:41:37;3.90;99.90
59208;DHT22;44977;53.132;6.408;2023-11-18T06:46:48;4.00;99.90
59208;DHT22;44977;53.132;6.408;2023-11-18T06:51:51;4.10;99.90
59208;DHT22;44977;53.132;6.408;2023-11-18T06:56:51;4.10;99.90
59208;DHT22;44977;53.132;6.408;2023-11-18T07:01:53;4.20;99.90
59208;DHT22;44977;53.132;6.408;2023-11-18T07:06:54;4.20;99.90
59208;DHT22;44977;53.132;6.408;2023-11-18T07:11:54;4.20;99.90
59208;DHT22;44977;53.132;6.408;2023-11-18T07:16:56;4.30;99.90
59208;DHT22;44977;53.132;6.408;2023-11-18T07:21:57;4.30;99.90
59208;DHT22;44977;53.132;6.408;2023-11-18T07:26:57;4.30;99.90
59208;DHT22;44977;53.132;6.408;2023-11-18T07:32:00;4.30;99.90
59208;DHT22;44977;53.132;6.408;2023-11-18T07:37:05;4.40;99.90
59208;DHT22;44977;53.132;6.408;2023-11-18T07:42:08;4.40;99.90
59208;DHT22;44977;53.132;6.408;2023-11-18T07:47:09;4.50;99.90
59208;DHT22;44977;53.132;6.408;2023-11-18T07:52:10;4.50;99.90
59208;DHT22;44977;53.132;6.408;2023-11-18T07:57:10;4.50;99.90
59208;DHT22;44977;53.132;6.408;2023-11-18T08:02:12;4.50;99.90
59208;DHT22;44977;53.132;6.408;2023-11-18T08:07:15;4.60;99.90
59208;DHT22;44977;53.132;6.408;2023-11-18T08:12:15;4.60;99.90
59208;DHT22;44977;53.132;6.408;2023-11-18T08:17:16;4.60;99.90
59208;DHT22;44977;53.132;6.408;2023-11-18T08:22:17;4.70;99.90
59208;DHT22;44977;53.132;6.408;2023-11-18T08:27:19;4.70;99.90
59208;DHT22;44977;53.132;6.408;2023-11-18T08:32:20;4.80;99.90
59208;DHT22;44977;53.132;6.408;2023-11-18T08:37:23;4.80;99.90
59208;DHT22;44977;53.132;6.408;2023-11-18T08:42:23;4.80;99.90
59208;DHT22;44977;53.132;6.408;2023-11-18T08:47:25;4.90;99.90
59208;DHT22;44977;53.132;6.408;2023-11-18T08:52:26;4.90;99.90
59208;DHT22;44977;53.132;6.408;2023-11-18T08:57:26;5.00;99.90
59208;DHT22;44977;53.132;6.408;2023-11-18T09:02:28;5.00;99.90
59208;DHT22;44977;53.132;6.408;2023-11-18T09:07:29;5.10;99.90
59208;DHT22;44977;53.132;6.408;2023-11-18T09:12:30;5.10;99.90
59208;DHT22;44977;53.132;6.408;2023-11-18T09:17:31;5.20;99.90
59208;DHT22;44977;53.132;6.408;2023-11-18T09:22:32;5.20;99.90
59208;DHT22;44977;53.132;6.408;2023-11-18T09:27:33;5.30;99.90
59208;DHT22;44977;53.132;6.408;2023-11-18T09:32:34;5.30;99.90
59208;DHT22;44977;53.132;6.408;2023-11-18T09:37:35;5.40;99.90
59208;DHT22;44977;53.132;6.408;2023-11-18T09:42:37;5.40;99.90
59208;DHT22;44977;53.132;6.408;2023-11-18T09:47:42;5.40;99.90
59208;DHT22;44977;53.132;6.408;2023-11-18T09:52:48;5.40;99.90
59208;DHT22;44977;53.132;6.408;2023-11-18T09:57:59;5.50;99.90
59208;DHT22;44977;53.132;6.408;2023-11-18T10:03:05;5.50;99.90
59208;DHT22;44977;53.132;6.408;2023-11-18T10:08:08;5.50;99.90
59208;DHT22;44977;53.132;6.408;2023-11-18T10:13:09;5.50;99.90
59208;DHT22;44977;53.132;6.408;2023-11-18T10:18:22;5.50;99.90
59208;DHT22;44977;53.132;6.408;2023-11-18T10:23:23;5.50;99.90
59208;DHT22;44977;53.132;6.408;2023-11-18T10:33:29;5.50;99.90
59208;DHT22;44977;53.132;6.408;2023-11-18T10:38:31;5.50;99.90
59208;DHT22;44977;53.132;6.408;2023-11-18T10:43:32;5.40;99.90
59208;DHT22;44977;53.132;6.408;2023-11-18T10:48:39;5.40;99.90
59208;DHT22;44977;53.132;6.408;2023-11-18T10:53:43;5.40;99.90
59208;DHT22;44977;53.132;6.408;2023-11-18T10:58:56;5.40;99.90
59208;DHT22;44977;53.132;6.408;2023-11-18T11:03:57;5.40;99.90
59208;DHT22;44977;53.132;6.408;2023-11-18T11:08:59;5.40;99.90
59208;DHT22;44977;53.132;6.408;2023-11-18T11:14:03;5.40;99.90
59208;DHT22;44977;53.132;6.408;2023-11-18T11:19:06;5.30;99.90
59208;DHT22;44977;53.132;6.408;2023-11-18T11:24:32;5.40;99.90
59208;DHT22;44977;53.132;6.408;2023-11-18T11:30:19;5.30;99.90
59208;DHT22;44977;53.132;6.408;2023-11-18T11:35:23;5.40;99.90
59208;DHT22;44977;53.132;6.408;2023-11-18T11:40:29;5.40;99.90
59208;DHT22;44977;53.132;6.408;2023-11-18T11:45:30;5.40;99.90
59208;DHT22;44977;53.132;6.408;2023-11-18T11:50:33;5.40;99.90
59208;DHT22;44977;53.132;6.408;2023-11-18T11:55:45;5.40;99.90
59208;DHT22;44977;53.132;6.408;2023-11-18T12:00:47;5.40;99.90
59208;DHT22;44977;53.132;6.408;2023-11-18T12:05:55;5.40;99.90
59208;DHT22;44977;53.132;6.408;2023-11-18T12:10:56;5.40;99.90
59208;DHT22;44977;53.132;6.408;2023-11-18T12:15:57;5.40;99.90
59208;DHT22;44977;53.132;6.408;2023-11-18T12:20:58;5.40;99.90
59208;DHT22;44977;53.132;6.408;2023-11-18T12:26:37;5.40;99.90
59208;DHT22;44977;53.132;6.408;2023-11-18T12:31:41;5.40;99.90
59208;DHT22;44977;53.132;6.408;2023-11-18T12:37:12;5.50;99.90
59208;DHT22;44977;53.132;6.408;2023-11-18T12:42:48;5.50;99.90
59208;DHT22;44977;53.132;6.408;2023-11-18T12:48:05;5.50;99.90
59208;DHT22;44977;53.132;6.408;2023-11-18T12:53:12;5.50;99.90
59208;DHT22;44977;53.132;6.408;2023-11-18T12:58:15;5.50;99.90
59208;DHT22;44977;53.132;6.408;2023-11-18T13:03:15;5.50;99.90
59208;DHT22;44977;53.132;6.408;2023-11-18T13:08:18;5.60;99.90
59208;DHT22;44977;53.132;6.408;2023-11-18T13:13:22;5.60;99.90
59208;DHT22;44977;53.132;6.408;2023-11-18T13:18:23;5.60;99.90
59208;DHT22;44977;53.132;6.408;2023-11-18T13:23:27;5.60;99.90
59208;DHT22;44977;53.132;6.408;2023-11-18T13:28:27;5.70;99.90
59208;DHT22;44977;53.132;6.408;2023-11-18T13:33:28;5.60;99.90
59208;DHT22;44977;53.132;6.408;2023-11-18T13:38:29;5.70;99.90
59208;DHT22;44977;53.132;6.408;2023-11-18T13:43:46;5.70;99.90
59208;DHT22;44977;53.132;6.408;2023-11-18T13:48:49;5.70;99.90
59208;DHT22;44977;53.132;6.408;2023-11-18T13:53:50;5.80;99.90
59208;DHT22;44977;53.132;6.408;2023-11-18T13:58:53;5.80;99.90
59208;DHT22;44977;53.132;6.408;2023-11-18T14:03:54;5.90;99.90
59208;DHT22;44977;53.132;6.408;2023-11-18T14:08:55;5.90;99.90
59208;DHT22;44977;53.132;6.408;2023-11-18T14:13:56;5.90;99.90
59208;DHT22;44977;53.132;6.408;2023-11-18T14:18:58;5.90;99.90
59208;DHT22;44977;53.132;6.408;2023-11-18T14:24:00;5.90;99.90
59208;DHT22;44977;53.132;6.408;2023-11-18T14:29:03;6.00;99.90
59208;DHT22;44977;53.132;6.408;2023-11-18T14:34:04;6.00;99.90
59208;DHT22;44977;53.132;6.408;2023-11-18T14:39:05;6.00;99.90
59208;DHT22;44977;53.132;6.408;2023-11-18T14:44:10;6.00;99.90
59208;DHT22;44977;53.132;6.408;2023-11-18T14:49:12;6.00;99.90
59208;DHT22;44977;53.132;6.408;2023-11-18T14:54:12;6.10;99.90
59208;DHT22;44977;53.132;6.408;2023-11-18T14:59:13;6.10;99.90
59208;DHT22;44977;53.132;6.408;2023-11-18T15:04:14;6.10;99.90
59208;DHT22;44977;53.132;6.408;2023-11-18T15:09:14;6.10;99.90
59208;DHT22;44977;53.132;6.408;2023-11-18T15:14:15;6.10;99.90
59208;DHT22;44977;53.132;6.408;2023-11-18T15:19:16;6.10;99.90
59208;DHT22;44977;53.132;6.408;2023-11-18T15:24:18;6.10;99.90
59208;DHT22;44977;53.132;6.408;2023-11-18T15:29:18;6.20;99.90
59208;DHT22;44977;53.132;6.408;2023-11-18T15:34:19;6.20;99.90
59208;DHT22;44977;53.132;6.408;2023-11-18T15:39:20;6.20;99.90
59208;DHT22;44977;53.132;6.408;2023-11-18T15:44:21;6.20;99.90
59208;DHT22;44977;53.132;6.408;2023-11-18T15:49:21;6.20;99.90
59208;DHT22;44977;53.132;6.408;2023-11-18T15:54:22;6.30;99.90
59208;DHT22;44977;53.132;6.408;2023-11-18T15:59:23;6.30;99.90
59208;DHT22;44977;53.132;6.408;2023-11-18T16:04:25;6.30;99.90
59208;DHT22;44977;53.132;6.408;2023-11-18T16:09:26;6.30;99.90
59208;DHT22;44977;53.132;6.408;2023-11-18T16:14:27;6.30;99.90
59208;DHT22;44977;53.132;6.408;2023-11-18T16:19:28;6.40;99.90
59208;DHT22;44977;53.132;6.408;2023-11-18T16:24:29;6.40;99.90
59208;DHT22;44977;53.132;6.408;2023-11-18T16:29:29;6.40;99.90
59208;DHT22;44977;53.132;6.408;2023-11-18T16:34:31;6.40;99.90
59208;DHT22;44977;53.132;6.408;2023-11-18T16:39:32;6.40;99.90
59208;DHT22;44977;53.132;6.408;2023-11-18T16:44:33;6.50;99.90
59208;DHT22;44977;53.132;6.408;2023-11-18T16:49:34;6.50;99.90
59208;DHT22;44977;53.132;6.408;2023-11-18T16:54:34;6.50;99.90
59208;DHT22;44977;53.132;6.408;2023-11-18T16:59:35;6.50;99.90
59208;DHT22;44977;53.132;6.408;2023-11-18T17:04:36;6.50;99.90
59208;DHT22;44977;53.132;6.408;2023-11-18T17:09:37;6.60;99.90
59208;DHT22;44977;53.132;6.408;2023-11-18T17:14:38;6.60;99.90
59208;DHT22;44977;53.132;6.408;2023-11-18T17:19:39;6.60;99.90
59208;DHT22;44977;53.132;6.408;2023-11-18T17:24:39;6.60;99.90
59208;DHT22;44977;53.132;6.408;2023-11-18T17:29:40;6.60;99.90
59208;DHT22;44977;53.132;6.408;2023-11-18T17:34:41;6.60;99.90
59208;DHT22;44977;53.132;6.408;2023-11-18T17:39:43;6.60;99.90
59208;DHT22;44977;53.132;6.408;2023-11-18T17:44:43;6.60;99.90
59208;DHT22;44977;53.132;6.408;2023-11-18T17:49:44;6.70;99.90
59208;DHT22;44977;53.132;6.408;2023-11-18T17:54:45;6.70;99.90
59208;DHT22;44977;53.132;6.408;2023-11-18T17:59:46;6.70;99.90
59208;DHT22;44977;53.132;6.408;2023-11-18T18:04:47;6.70;99.90
59208;DHT22;44977;53.132;6.408;2023-11-18T18:09:48;6.80;99.90
59208;DHT22;44977;53.132;6.408;2023-11-18T18:14:48;6.80;99.90
59208;DHT22;44977;53.132;6.408;2023-11-18T18:19:51;6.80;99.90
59208;DHT22;44977;53.132;6.408;2023-11-18T18:24:52;6.80;99.90
59208;DHT22;44977;53.132;6.408;2023-11-18T18:29:53;6.80;99.90
59208;DHT22;44977;53.132;6.408;2023-11-18T18:34:55;6.90;99.90
59208;DHT22;44977;53.132;6.408;2023-11-18T18:39:55;6.90;99.90
59208;DHT22;44977;53.132;6.408;2023-11-18T18:44:56;6.90;99.90
59208;DHT22;44977;53.132;6.408;2023-11-18T18:49:57;6.90;99.90
59208;DHT22;44977;53.132;6.408;2023-11-18T18:54:58;7.00;99.90
59208;DHT22;44977;53.132;6.408;2023-11-18T18:59:59;7.00;99.90
59208;DHT22;44977;53.132;6.408;2023-11-18T19:05:00;7.00;99.90
59208;DHT22;44977;53.132;6.408;2023-11-18T19:10:00;7.00;99.90
59208;DHT22;44977;53.132;6.408;2023-11-18T19:15:01;7.00;99.90
59208;DHT22;44977;53.132;6.408;2023-11-18T19:20:05;7.10;99.90
59208;DHT22;44977;53.132;6.408;2023-11-18T19:25:13;7.10;99.90
59208;DHT22;44977;53.132;6.408;2023-11-18T19:30:15;7.10;99.90
59208;DHT22;44977;53.132;6.408;2023-11-18T19:35:16;7.20;99.90
59208;DHT22;44977;53.132;6.408;2023-11-18T19:40:17;7.20;99.90
59208;DHT22;44977;53.132;6.408;2023-11-18T19:45:18;7.20;99.90
59208;DHT22;44977;53.132;6.408;2023-11-18T19:50:19;7.30;99.90
59208;DHT22;44977;53.132;6.408;2023-11-18T19:55:19;7.30;99.90
59208;DHT22;44977;53.132;6.408;2023-11-18T20:00:21;7.40;99.90
59208;DHT22;44977;53.132;6.408;2023-11-18T20:05:24;7.40;99.90
59208;DHT22;44977;53.132;6.408;2023-11-18T20:10:26;7.50;99.90
59208;DHT22;44977;53.132;6.408;2023-11-18T20:15:28;7.50;99.90
59208;DHT22;44977;53.132;6.408;2023-11-18T20:20:29;7.50;99.90
59208;DHT22;44977;53.132;6.408;2023-11-18T20:25:30;7.50;99.90
59208;DHT22;44977;53.132;6.408;2023-11-18T20:30:31;7.60;99.90
59208;DHT22;44977;53.132;6.408;2023-11-18T20:35:32;7.60;99.90
59208;DHT22;44977;53.132;6.408;2023-11-18T20:40:32;7.70;99.90
59208;DHT22;44977;53.132;6.408;2023-11-18T20:45:33;7.80;99.90
59208;DHT22;44977;53.132;6.408;2023-11-18T20:50:34;7.80;99.90
59208;DHT22;44977;53.132;6.408;2023-11-18T20:55:36;7.90;99.90
59208;DHT22;44977;53.132;6.408;2023-11-18T21:00:36;7.90;99.90
59208;DHT22;44977;53.132;6.408;2023-11-18T21:05:38;8.00;99.90
59208;DHT22;44977;53.132;6.408;2023-11-18T21:10:39;8.10;99.90
59208;DHT22;44977;53.132;6.408;2023-11-18T21:15:40;8.10;99.90
59208;DHT22;44977;53.132;6.408;2023-11-18T21:20:42;8.10;99.90
59208;DHT22;44977;53.132;6.408;2023-11-18T21:25:42;8.20;99.90
59208;DHT22;44977;53.132;6.408;2023-11-18T21:30:43;8.30;99.90
59208;DHT22;44977;53.132;6.408;2023-11-18T21:35:44;8.30;99.90
59208;DHT22;44977;53.132;6.408;2023-11-18T21:40:45;8.40;99.90
59208;DHT22;44977;53.132;6.408;2023-11-18T21:45:46;8.50;99.90
59208;DHT22;44977;53.132;6.408;2023-11-18T21:50:47;8.50;99.90
59208;DHT22;44977;53.132;6.408;2023-11-18T21:55:50;8.70;99.90
59208;DHT22;44977;53.132;6.408;2023-11-18T22:00:54;8.80;99.90
59208;DHT22;44977;53.132;6.408;2023-11-18T22:05:55;8.80;99.90
59208;DHT22;44977;53.132;6.408;2023-11-18T22:10:56;8.90;99.90
59208;DHT22;44977;53.132;6.408;2023-11-18T22:15:58;9.00;99.90
59208;DHT22;44977;53.132;6.408;2023-11-18T22:20:59;9.10;99.90
59208;DHT22;44977;53.132;6.408;2023-11-18T22:26:00;9.20;99.90
59208;DHT22;44977;53.132;6.408;2023-11-18T22:31:01;9.30;99.90
59208;DHT22;44977;53.132;6.408;2023-11-18T22:36:05;9.40;99.90
59208;DHT22;44977;53.132;6.408;2023-11-18T22:41:08;9.50;99.90
59208;DHT22;44977;53.132;6.408;2023-11-18T22:46:10;9.60;99.90
59208;DHT22;44977;53.132;6.408;2023-11-18T22:51:11;9.70;99.90
59208;DHT22;44977;53.132;6.408;2023-11-18T22:56:12;9.80;99.90
59208;DHT22;44977;53.132;6.408;2023-11-18T23:01:14;9.90;99.90
59208;DHT22;44977;53.132;6.408;2023-11-18T23:06:20;10.00;99.90
59208;DHT22;44977;53.132;6.408;2023-11-18T23:11:21;10.00;99.90
59208;DHT22;44977;53.132;6.408;2023-11-18T23:16:22;10.10;99.90
59208;DHT22;44977;53.132;6.408;2023-11-18T23:21:24;10.10;99.90
59208;DHT22;44977;53.132;6.408;2023-11-18T23:26:26;10.20;99.90
59208;DHT22;44977;53.132;6.408;2023-11-18T23:31:27;10.30;99.90
59208;DHT22;44977;53.132;6.408;2023-11-18T23:36:28;10.50;99.90
59208;DHT22;44977;53.132;6.408;2023-11-18T23:41:29;10.70;99.90
59208;DHT22;44977;53.132;6.408;2023-11-18T23:46:30;10.80;99.90
59208;DHT22;44977;53.132;6.408;2023-11-18T23:51:32;11.00;99.90
59208;DHT22;44977;53.132;6.408;2023-11-18T23:56:33;11.10;99.90
